sensor_id;sensor_type;location;lat;lon;timestamp;P1;durP1;ratioP1;P2;durP2;ratioP2
21593;SDS011;10959;51.328;7.322;2022-11-20T00:01:28;16.67;;;14.87;;
21593;SDS011;10959;51.328;7.322;2022-11-20T00:03:56;13.53;;;11.70;;
21593;SDS011;10959;51.328;7.322;2022-11-20T00:06:23;14.03;;;11.73;;
21593;SDS011;10959;51.328;7.322;2022-11-20T00:08:51;12.90;;;11.43;;
21593;SDS011;10959;51.328;7.322;2022-11-20T00:11:20;14.50;;;12.10;;
21593;SDS011;10959;51.328;7.322;2022-11-20T00:13:49;14.03;;;11.60;;
21593;SDS011;10959;51.328;7.322;2022-11-20T00:16:17;12.70;;;10.90;;
21593;SDS011;10959;51.328;7.322;2022-11-20T00:18:47;13.70;;;11.60;;
21593;SDS011;10959;51.328;7.322;2022-11-20T00:21:14;11.17;;;9.97;;
21593;SDS011;10959;51.328;7.322;2022-11-20T00:23:43;13.60;;;10.60;;
21593;SDS011;10959;51.328;7.322;2022-11-20T00:26:10;11.40;;;9.70;;
21593;SDS011;10959;51.328;7.322;2022-11-20T00:28:37;10.87;;;9.70;;
21593;SDS011;10959;51.328;7.322;2022-11-20T00:31:05;11.10;;;9.57;;
21593;SDS011;10959;51.328;7.322;2022-11-20T00:33:33;13.20;;;11.87;;
21593;SDS011;10959;51.328;7.322;2022-11-20T00:36:02;11.60;;;10.40;;
21593;SDS011;10959;51.328;7.322;2022-11-20T00:38:30;11.13;;;9.93;;
21593;SDS011;10959;51.328;7.322;2022-11-20T00:40:56;12.23;;;10.40;;
21593;SDS011;10959;51.328;7.322;2022-11-20T00:43:23;13.57;;;11.57;;
21593;SDS011;10959;51.328;7.322;2022-11-20T00:45:50;12.50;;;10.50;;
21593;SDS011;10959;51.328;7.322;2022-11-20T00:48:16;12.10;;;10.07;;
21593;SDS011;10959;51.328;7.322;2022-11-20T00:50:43;10.40;;;9.30;;
21593;SDS011;10959;51.328;7.322;2022-11-20T00:53:11;11.70;;;10.40;;
21593;SDS011;10959;51.328;7.322;2022-11-20T00:55:37;11.80;;;9.53;;
21593;SDS011;10959;51.328;7.322;2022-11-20T00:58:03;10.93;;;8.93;;
21593;SDS011;10959;51.328;7.322;2022-11-20T01:00:30;11.23;;;10.03;;
21593;SDS011;10959;51.328;7.322;2022-11-20T01:02:56;14.63;;;11.90;;
21593;SDS011;10959;51.328;7.322;2022-11-20T01:05:23;13.63;;;11.70;;
21593;SDS011;10959;51.328;7.322;2022-11-20T01:07:49;13.33;;;10.87;;
21593;SDS011;10959;51.328;7.322;2022-11-20T01:10:17;12.97;;;9.87;;
21593;SDS011;10959;51.328;7.322;2022-11-20T01:12:43;10.80;;;8.93;;
21593;SDS011;10959;51.328;7.322;2022-11-20T01:15:30;11.70;;;9.00;;
21593;SDS011;10959;51.328;7.322;2022-11-20T01:17:56;10.80;;;9.00;;
21593;SDS011;10959;51.328;7.322;2022-11-20T01:20:22;11.20;;;8.93;;
21593;SDS011;10959;51.328;7.322;2022-11-20T01:22:49;10.50;;;8.80;;
21593;SDS011;10959;51.328;7.322;2022-11-20T01:25:17;10.93;;;8.70;;
21593;SDS011;10959;51.328;7.322;2022-11-20T01:27:43;11.30;;;8.90;;
21593;SDS011;10959;51.328;7.322;2022-11-20T01:30:10;10.20;;;8.43;;
21593;SDS011;10959;51.328;7.322;2022-11-20T01:32:37;11.50;;;9.10;;
21593;SDS011;10959;51.328;7.322;2022-11-20T01:35:04;12.73;;;9.63;;
21593;SDS011;10959;51.328;7.322;2022-11-20T01:37:31;10.57;;;9.17;;
21593;SDS011;10959;51.328;7.322;2022-11-20T01:39:57;12.50;;;10.10;;
21593;SDS011;10959;51.328;7.322;2022-11-20T01:42:25;13.73;;;10.90;;
21593;SDS011;10959;51.328;7.322;2022-11-20T01:48:18;13.00;;;11.17;;
21593;SDS011;10959;51.328;7.322;2022-11-20T01:50:49;15.40;;;12.70;;
21593;SDS011;10959;51.328;7.322;2022-11-20T01:53:18;16.83;;;13.73;;
21593;SDS011;10959;51.328;7.322;2022-11-20T01:55:51;16.50;;;13.93;;
21593;SDS011;10959;51.328;7.322;2022-11-20T01:58:24;15.77;;;12.67;;
21593;SDS011;10959;51.328;7.322;2022-11-20T02:00:54;18.73;;;14.30;;
21593;SDS011;10959;51.328;7.322;2022-11-20T02:03:22;15.60;;;12.73;;
21593;SDS011;10959;51.328;7.322;2022-11-20T02:05:50;18.40;;;14.57;;
21593;SDS011;10959;51.328;7.322;2022-11-20T02:08:21;20.77;;;16.50;;
21593;SDS011;10959;51.328;7.322;2022-11-20T02:10:49;17.37;;;14.57;;
21593;SDS011;10959;51.328;7.322;2022-11-20T02:13:15;19.53;;;16.90;;
21593;SDS011;10959;51.328;7.322;2022-11-20T02:16:01;20.00;;;16.57;;
21593;SDS011;10959;51.328;7.322;2022-11-20T02:18:28;19.93;;;16.40;;
21593;SDS011;10959;51.328;7.322;2022-11-20T02:20:56;20.33;;;16.50;;
21593;SDS011;10959;51.328;7.322;2022-11-20T02:23:31;21.27;;;16.93;;
21593;SDS011;10959;51.328;7.322;2022-11-20T02:26:04;18.27;;;15.63;;
21593;SDS011;10959;51.328;7.322;2022-11-20T02:28:34;19.13;;;15.60;;
21593;SDS011;10959;51.328;7.322;2022-11-20T02:31:01;20.50;;;15.90;;
21593;SDS011;10959;51.328;7.322;2022-11-20T02:33:27;16.03;;;13.33;;
21593;SDS011;10959;51.328;7.322;2022-11-20T02:35:53;16.60;;;13.40;;
21593;SDS011;10959;51.328;7.322;2022-11-20T02:38:20;15.57;;;13.13;;
21593;SDS011;10959;51.328;7.322;2022-11-20T02:40:46;14.57;;;12.40;;
21593;SDS011;10959;51.328;7.322;2022-11-20T02:43:15;15.77;;;13.03;;
21593;SDS011;10959;51.328;7.322;2022-11-20T02:45:42;15.07;;;12.53;;
21593;SDS011;10959;51.328;7.322;2022-11-20T02:48:08;15.67;;;13.13;;
21593;SDS011;10959;51.328;7.322;2022-11-20T02:50:36;15.07;;;12.73;;
21593;SDS011;10959;51.328;7.322;2022-11-20T02:53:04;16.10;;;13.43;;
21593;SDS011;10959;51.328;7.322;2022-11-20T02:55:30;16.90;;;13.43;;
21593;SDS011;10959;51.328;7.322;2022-11-20T02:57:56;17.30;;;12.40;;
21593;SDS011;10959;51.328;7.322;2022-11-20T03:00:24;16.43;;;12.17;;
21593;SDS011;10959;51.328;7.322;2022-11-20T03:02:51;15.93;;;12.40;;
21593;SDS011;10959;51.328;7.322;2022-11-20T03:05:17;13.63;;;11.50;;
21593;SDS011;10959;51.328;7.322;2022-11-20T03:07:44;13.47;;;11.17;;
21593;SDS011;10959;51.328;7.322;2022-11-20T03:10:10;13.97;;;12.20;;
21593;SDS011;10959;51.328;7.322;2022-11-20T03:12:37;15.83;;;12.60;;
21593;SDS011;10959;51.328;7.322;2022-11-20T03:15:04;14.37;;;12.40;;
21593;SDS011;10959;51.328;7.322;2022-11-20T03:17:32;16.20;;;12.00;;
21593;SDS011;10959;51.328;7.322;2022-11-20T03:19:58;16.37;;;13.40;;
21593;SDS011;10959;51.328;7.322;2022-11-20T03:22:25;15.10;;;11.83;;
21593;SDS011;10959;51.328;7.322;2022-11-20T03:24:51;16.83;;;13.10;;
21593;SDS011;10959;51.328;7.322;2022-11-20T03:27:17;16.17;;;13.27;;
21593;SDS011;10959;51.328;7.322;2022-11-20T03:29:44;15.97;;;13.47;;
21593;SDS011;10959;51.328;7.322;2022-11-20T03:32:10;14.57;;;12.67;;
21593;SDS011;10959;51.328;7.322;2022-11-20T03:34:38;18.23;;;14.83;;
21593;SDS011;10959;51.328;7.322;2022-11-20T03:37:04;16.30;;;13.90;;
21593;SDS011;10959;51.328;7.322;2022-11-20T03:39:31;16.20;;;13.60;;
21593;SDS011;10959;51.328;7.322;2022-11-20T03:41:57;16.53;;;13.33;;
21593;SDS011;10959;51.328;7.322;2022-11-20T03:44:24;14.00;;;12.43;;
21593;SDS011;10959;51.328;7.322;2022-11-20T03:46:50;15.77;;;12.97;;
21593;SDS011;10959;51.328;7.322;2022-11-20T03:49:18;17.47;;;15.13;;
21593;SDS011;10959;51.328;7.322;2022-11-20T03:51:46;19.00;;;15.33;;
21593;SDS011;10959;51.328;7.322;2022-11-20T03:54:12;18.57;;;15.27;;
21593;SDS011;10959;51.328;7.322;2022-11-20T03:56:38;17.17;;;14.00;;
21593;SDS011;10959;51.328;7.322;2022-11-20T03:59:05;18.00;;;14.87;;
21593;SDS011;10959;51.328;7.322;2022-11-20T04:01:33;18.00;;;15.30;;
21593;SDS011;10959;51.328;7.322;2022-11-20T04:04:02;16.20;;;13.73;;
21593;SDS011;10959;51.328;7.322;2022-11-20T04:06:29;18.47;;;14.07;;
21593;SDS011;10959;51.328;7.322;2022-11-20T04:09:00;18.63;;;14.97;;
21593;SDS011;10959;51.328;7.322;2022-11-20T04:11:27;18.53;;;14.57;;
21593;SDS011;10959;51.328;7.322;2022-11-20T04:13:55;16.07;;;13.53;;
21593;SDS011;10959;51.328;7.322;2022-11-20T04:16:24;18.20;;;14.93;;
21593;SDS011;10959;51.328;7.322;2022-11-20T04:18:52;17.77;;;13.77;;
21593;SDS011;10959;51.328;7.322;2022-11-20T04:21:19;19.00;;;15.43;;
21593;SDS011;10959;51.328;7.322;2022-11-20T04:23:45;17.40;;;14.03;;
21593;SDS011;10959;51.328;7.322;2022-11-20T04:26:13;17.60;;;14.50;;
21593;SDS011;10959;51.328;7.322;2022-11-20T04:28:40;16.90;;;13.27;;
21593;SDS011;10959;51.328;7.322;2022-11-20T04:31:07;16.90;;;14.43;;
21593;SDS011;10959;51.328;7.322;2022-11-20T04:33:36;15.73;;;13.93;;
21593;SDS011;10959;51.328;7.322;2022-11-20T04:36:03;16.97;;;13.07;;
21593;SDS011;10959;51.328;7.322;2022-11-20T04:38:31;15.20;;;13.07;;
21593;SDS011;10959;51.328;7.322;2022-11-20T04:40:58;15.47;;;13.03;;
21593;SDS011;10959;51.328;7.322;2022-11-20T04:43:27;16.57;;;13.03;;
21593;SDS011;10959;51.328;7.322;2022-11-20T04:45:54;15.73;;;13.27;;
21593;SDS011;10959;51.328;7.322;2022-11-20T04:48:21;17.37;;;14.30;;
21593;SDS011;10959;51.328;7.322;2022-11-20T04:50:48;19.83;;;15.73;;
21593;SDS011;10959;51.328;7.322;2022-11-20T04:53:15;24.97;;;18.80;;
21593;SDS011;10959;51.328;7.322;2022-11-20T04:55:41;17.70;;;14.97;;
21593;SDS011;10959;51.328;7.322;2022-11-20T04:58:08;17.93;;;13.67;;
21593;SDS011;10959;51.328;7.322;2022-11-20T05:00:36;18.77;;;14.97;;
21593;SDS011;10959;51.328;7.322;2022-11-20T05:03:03;18.07;;;14.63;;
21593;SDS011;10959;51.328;7.322;2022-11-20T05:05:29;16.90;;;14.93;;
21593;SDS011;10959;51.328;7.322;2022-11-20T05:07:56;18.80;;;15.20;;
21593;SDS011;10959;51.328;7.322;2022-11-20T05:10:22;15.37;;;12.83;;
21593;SDS011;10959;51.328;7.322;2022-11-20T05:12:49;16.90;;;14.27;;
21593;SDS011;10959;51.328;7.322;2022-11-20T05:15:15;17.73;;;14.60;;
21593;SDS011;10959;51.328;7.322;2022-11-20T05:17:47;17.53;;;15.03;;
21593;SDS011;10959;51.328;7.322;2022-11-20T05:20:14;20.03;;;15.07;;
21593;SDS011;10959;51.328;7.322;2022-11-20T05:22:41;18.00;;;14.23;;
21593;SDS011;10959;51.328;7.322;2022-11-20T05:25:07;16.70;;;14.57;;
21593;SDS011;10959;51.328;7.322;2022-11-20T05:27:34;18.23;;;14.90;;
21593;SDS011;10959;51.328;7.322;2022-11-20T05:30:00;19.17;;;14.40;;
21593;SDS011;10959;51.328;7.322;2022-11-20T05:32:27;18.17;;;14.50;;
21593;SDS011;10959;51.328;7.322;2022-11-20T05:34:55;18.00;;;14.83;;
21593;SDS011;10959;51.328;7.322;2022-11-20T05:37:21;18.30;;;14.90;;
21593;SDS011;10959;51.328;7.322;2022-11-20T05:39:48;19.40;;;15.47;;
21593;SDS011;10959;51.328;7.322;2022-11-20T05:42:14;17.03;;;13.63;;
21593;SDS011;10959;51.328;7.322;2022-11-20T05:44:56;17.17;;;14.70;;
21593;SDS011;10959;51.328;7.322;2022-11-20T05:47:23;18.37;;;14.90;;
21593;SDS011;10959;51.328;7.322;2022-11-20T05:49:49;20.50;;;15.73;;
21593;SDS011;10959;51.328;7.322;2022-11-20T05:52:17;19.03;;;14.13;;
21593;SDS011;10959;51.328;7.322;2022-11-20T05:54:44;16.57;;;13.57;;
21593;SDS011;10959;51.328;7.322;2022-11-20T05:57:10;17.00;;;13.37;;
21593;SDS011;10959;51.328;7.322;2022-11-20T05:59:37;17.33;;;14.73;;
21593;SDS011;10959;51.328;7.322;2022-11-20T06:02:03;17.37;;;14.40;;
21593;SDS011;10959;51.328;7.322;2022-11-20T06:04:30;16.67;;;14.13;;
21593;SDS011;10959;51.328;7.322;2022-11-20T06:06:56;16.20;;;13.70;;
21593;SDS011;10959;51.328;7.322;2022-11-20T06:09:24;14.93;;;13.07;;
21593;SDS011;10959;51.328;7.322;2022-11-20T06:11:51;17.20;;;14.43;;
21593;SDS011;10959;51.328;7.322;2022-11-20T06:14:18;16.53;;;13.50;;
21593;SDS011;10959;51.328;7.322;2022-11-20T06:16:45;16.23;;;13.67;;
21593;SDS011;10959;51.328;7.322;2022-11-20T06:19:11;16.27;;;12.90;;
21593;SDS011;10959;51.328;7.322;2022-11-20T06:21:38;17.07;;;12.60;;
21593;SDS011;10959;51.328;7.322;2022-11-20T06:24:05;13.17;;;11.43;;
21593;SDS011;10959;51.328;7.322;2022-11-20T06:26:33;14.63;;;12.20;;
21593;SDS011;10959;51.328;7.322;2022-11-20T06:28:59;14.20;;;12.00;;
21593;SDS011;10959;51.328;7.322;2022-11-20T06:31:26;13.80;;;11.33;;
21593;SDS011;10959;51.328;7.322;2022-11-20T06:33:53;17.97;;;14.33;;
21593;SDS011;10959;51.328;7.322;2022-11-20T06:36:21;18.80;;;15.43;;
21593;SDS011;10959;51.328;7.322;2022-11-20T06:38:48;24.07;;;18.07;;
21593;SDS011;10959;51.328;7.322;2022-11-20T06:41:16;16.70;;;13.97;;
21593;SDS011;10959;51.328;7.322;2022-11-20T06:43:45;24.37;;;17.93;;
21593;SDS011;10959;51.328;7.322;2022-11-20T06:46:13;18.53;;;15.23;;
21593;SDS011;10959;51.328;7.322;2022-11-20T06:48:42;19.67;;;15.43;;
21593;SDS011;10959;51.328;7.322;2022-11-20T06:51:09;19.03;;;16.00;;
21593;SDS011;10959;51.328;7.322;2022-11-20T06:53:35;18.30;;;14.33;;
21593;SDS011;10959;51.328;7.322;2022-11-20T06:56:03;16.47;;;13.03;;
21593;SDS011;10959;51.328;7.322;2022-11-20T06:58:31;14.93;;;12.30;;
21593;SDS011;10959;51.328;7.322;2022-11-20T07:01:01;15.17;;;12.63;;
21593;SDS011;10959;51.328;7.322;2022-11-20T07:03:29;14.33;;;11.00;;
21593;SDS011;10959;51.328;7.322;2022-11-20T07:05:56;14.40;;;12.00;;
21593;SDS011;10959;51.328;7.322;2022-11-20T07:08:23;14.87;;;11.90;;
21593;SDS011;10959;51.328;7.322;2022-11-20T07:10:49;12.70;;;10.93;;
21593;SDS011;10959;51.328;7.322;2022-11-20T07:13:16;14.63;;;11.53;;
21593;SDS011;10959;51.328;7.322;2022-11-20T07:15:43;13.00;;;11.10;;
21593;SDS011;10959;51.328;7.322;2022-11-20T07:18:11;12.90;;;10.93;;
21593;SDS011;10959;51.328;7.322;2022-11-20T07:20:37;12.53;;;10.80;;
21593;SDS011;10959;51.328;7.322;2022-11-20T07:23:03;13.90;;;10.83;;
21593;SDS011;10959;51.328;7.322;2022-11-20T07:25:30;14.40;;;11.57;;
21593;SDS011;10959;51.328;7.322;2022-11-20T07:27:57;12.90;;;11.53;;
21593;SDS011;10959;51.328;7.322;2022-11-20T07:30:24;14.80;;;12.67;;
21593;SDS011;10959;51.328;7.322;2022-11-20T07:32:51;14.00;;;11.80;;
21593;SDS011;10959;51.328;7.322;2022-11-20T07:35:19;15.33;;;11.10;;
21593;SDS011;10959;51.328;7.322;2022-11-20T07:37:46;16.13;;;13.03;;
21593;SDS011;10959;51.328;7.322;2022-11-20T07:40:13;17.80;;;14.43;;
21593;SDS011;10959;51.328;7.322;2022-11-20T07:42:46;19.17;;;15.40;;
21593;SDS011;10959;51.328;7.322;2022-11-20T07:45:14;19.43;;;15.17;;
21593;SDS011;10959;51.328;7.322;2022-11-20T07:47:40;17.93;;;13.70;;
21593;SDS011;10959;51.328;7.322;2022-11-20T07:50:07;17.33;;;14.80;;
21593;SDS011;10959;51.328;7.322;2022-11-20T07:52:35;21.03;;;16.43;;
21593;SDS011;10959;51.328;7.322;2022-11-20T07:55:02;20.67;;;15.40;;
21593;SDS011;10959;51.328;7.322;2022-11-20T07:57:29;22.03;;;18.13;;
21593;SDS011;10959;51.328;7.322;2022-11-20T07:59:56;21.90;;;17.87;;
21593;SDS011;10959;51.328;7.322;2022-11-20T08:02:22;24.73;;;18.93;;
21593;SDS011;10959;51.328;7.322;2022-11-20T08:04:49;23.20;;;18.77;;
21593;SDS011;10959;51.328;7.322;2022-11-20T08:07:16;20.93;;;18.33;;
21593;SDS011;10959;51.328;7.322;2022-11-20T08:09:43;21.40;;;18.40;;
21593;SDS011;10959;51.328;7.322;2022-11-20T08:12:10;24.50;;;18.27;;
21593;SDS011;10959;51.328;7.322;2022-11-20T08:15:01;23.43;;;18.30;;
21593;SDS011;10959;51.328;7.322;2022-11-20T08:17:27;25.70;;;19.77;;
21593;SDS011;10959;51.328;7.322;2022-11-20T08:19:53;23.87;;;18.80;;
21593;SDS011;10959;51.328;7.322;2022-11-20T08:22:20;20.13;;;16.67;;
21593;SDS011;10959;51.328;7.322;2022-11-20T08:24:48;19.20;;;16.50;;
21593;SDS011;10959;51.328;7.322;2022-11-20T08:27:14;22.53;;;17.03;;
21593;SDS011;10959;51.328;7.322;2022-11-20T08:29:41;22.07;;;17.33;;
21593;SDS011;10959;51.328;7.322;2022-11-20T08:32:09;20.43;;;17.83;;
21593;SDS011;10959;51.328;7.322;2022-11-20T08:34:35;18.70;;;15.97;;
21593;SDS011;10959;51.328;7.322;2022-11-20T08:37:02;22.17;;;18.60;;
21593;SDS011;10959;51.328;7.322;2022-11-20T08:39:28;20.50;;;16.63;;
21593;SDS011;10959;51.328;7.322;2022-11-20T08:41:56;19.77;;;16.20;;
21593;SDS011;10959;51.328;7.322;2022-11-20T08:44:23;18.63;;;16.03;;
21593;SDS011;10959;51.328;7.322;2022-11-20T08:46:50;17.60;;;14.43;;
21593;SDS011;10959;51.328;7.322;2022-11-20T08:49:16;16.83;;;14.30;;
21593;SDS011;10959;51.328;7.322;2022-11-20T08:51:43;19.60;;;15.47;;
21593;SDS011;10959;51.328;7.322;2022-11-20T08:54:12;18.03;;;14.37;;
21593;SDS011;10959;51.328;7.322;2022-11-20T08:56:38;16.80;;;14.30;;
21593;SDS011;10959;51.328;7.322;2022-11-20T08:59:06;16.90;;;14.23;;
21593;SDS011;10959;51.328;7.322;2022-11-20T09:01:32;18.70;;;15.90;;
21593;SDS011;10959;51.328;7.322;2022-11-20T09:04:00;16.80;;;14.50;;
21593;SDS011;10959;51.328;7.322;2022-11-20T09:06:26;17.97;;;15.73;;
21593;SDS011;10959;51.328;7.322;2022-11-20T09:08:53;15.70;;;14.10;;
21593;SDS011;10959;51.328;7.322;2022-11-20T09:11:20;17.90;;;14.77;;
21593;SDS011;10959;51.328;7.322;2022-11-20T09:13:46;17.97;;;15.80;;
21593;SDS011;10959;51.328;7.322;2022-11-20T09:16:14;17.87;;;14.93;;
21593;SDS011;10959;51.328;7.322;2022-11-20T09:18:41;15.17;;;13.57;;
21593;SDS011;10959;51.328;7.322;2022-11-20T09:21:09;16.73;;;14.87;;
21593;SDS011;10959;51.328;7.322;2022-11-20T09:23:37;14.97;;;13.17;;
21593;SDS011;10959;51.328;7.322;2022-11-20T09:26:05;15.57;;;12.70;;
21593;SDS011;10959;51.328;7.322;2022-11-20T09:28:32;12.10;;;10.40;;
21593;SDS011;10959;51.328;7.322;2022-11-20T09:30:59;12.53;;;9.93;;
21593;SDS011;10959;51.328;7.322;2022-11-20T09:33:27;11.40;;;9.60;;
21593;SDS011;10959;51.328;7.322;2022-11-20T09:35:54;11.83;;;9.13;;
21593;SDS011;10959;51.328;7.322;2022-11-20T09:38:20;10.57;;;8.50;;
21593;SDS011;10959;51.328;7.322;2022-11-20T09:40:49;9.97;;;8.27;;
21593;SDS011;10959;51.328;7.322;2022-11-20T09:43:26;11.10;;;9.53;;
21593;SDS011;10959;51.328;7.322;2022-11-20T09:46:04;8.57;;;7.43;;
21593;SDS011;10959;51.328;7.322;2022-11-20T09:48:42;8.83;;;7.93;;
21593;SDS011;10959;51.328;7.322;2022-11-20T09:51:21;10.37;;;8.10;;
21593;SDS011;10959;51.328;7.322;2022-11-20T09:54:00;9.60;;;8.30;;
21593;SDS011;10959;51.328;7.322;2022-11-20T09:56:37;7.67;;;6.47;;
21593;SDS011;10959;51.328;7.322;2022-11-20T09:59:08;8.27;;;7.07;;
21593;SDS011;10959;51.328;7.322;2022-11-20T10:01:45;7.97;;;6.50;;
21593;SDS011;10959;51.328;7.322;2022-11-20T10:04:15;9.33;;;6.67;;
21593;SDS011;10959;51.328;7.322;2022-11-20T10:06:44;8.83;;;7.43;;
21593;SDS011;10959;51.328;7.322;2022-11-20T10:09:19;8.10;;;7.27;;
21593;SDS011;10959;51.328;7.322;2022-11-20T10:11:54;8.43;;;7.50;;
21593;SDS011;10959;51.328;7.322;2022-11-20T10:14:33;8.83;;;7.87;;
21593;SDS011;10959;51.328;7.322;2022-11-20T10:17:09;9.17;;;8.13;;
21593;SDS011;10959;51.328;7.322;2022-11-20T10:19:51;7.87;;;7.10;;
21593;SDS011;10959;51.328;7.322;2022-11-20T10:22:32;9.70;;;8.20;;
21593;SDS011;10959;51.328;7.322;2022-11-20T10:25:13;7.50;;;6.70;;
21593;SDS011;10959;51.328;7.322;2022-11-20T10:27:51;6.17;;;5.57;;
21593;SDS011;10959;51.328;7.322;2022-11-20T10:30:51;7.80;;;6.30;;
21593;SDS011;10959;51.328;7.322;2022-11-20T10:33:22;6.97;;;5.83;;
21593;SDS011;10959;51.328;7.322;2022-11-20T10:35:54;6.77;;;6.07;;
21593;SDS011;10959;51.328;7.322;2022-11-20T10:38:30;8.07;;;6.10;;
21593;SDS011;10959;51.328;7.322;2022-11-20T10:41:03;7.03;;;6.33;;
21593;SDS011;10959;51.328;7.322;2022-11-20T10:43:52;8.00;;;7.00;;
21593;SDS011;10959;51.328;7.322;2022-11-20T10:46:24;8.60;;;7.70;;
21593;SDS011;10959;51.328;7.322;2022-11-20T10:48:51;8.00;;;7.20;;
21593;SDS011;10959;51.328;7.322;2022-11-20T10:51:25;9.03;;;7.10;;
21593;SDS011;10959;51.328;7.322;2022-11-20T10:53:58;8.03;;;7.17;;
21593;SDS011;10959;51.328;7.322;2022-11-20T10:56:38;9.60;;;7.73;;
21593;SDS011;10959;51.328;7.322;2022-11-20T10:59:25;8.33;;;7.40;;
21593;SDS011;10959;51.328;7.322;2022-11-20T11:01:57;8.13;;;7.13;;
21593;SDS011;10959;51.328;7.322;2022-11-20T11:04:28;9.43;;;8.43;;
21593;SDS011;10959;51.328;7.322;2022-11-20T11:07:04;8.03;;;7.23;;
21593;SDS011;10959;51.328;7.322;2022-11-20T11:09:38;9.47;;;8.00;;
21593;SDS011;10959;51.328;7.322;2022-11-20T11:12:09;11.20;;;8.07;;
21593;SDS011;10959;51.328;7.322;2022-11-20T11:14:42;8.73;;;7.37;;
21593;SDS011;10959;51.328;7.322;2022-11-20T11:17:18;9.47;;;8.27;;
21593;SDS011;10959;51.328;7.322;2022-11-20T11:19:56;10.90;;;8.97;;
21593;SDS011;10959;51.328;7.322;2022-11-20T11:22:29;9.80;;;8.50;;
21593;SDS011;10959;51.328;7.322;2022-11-20T11:24:57;9.97;;;8.77;;
21593;SDS011;10959;51.328;7.322;2022-11-20T11:27:23;11.30;;;10.00;;
21593;SDS011;10959;51.328;7.322;2022-11-20T11:29:50;12.33;;;10.10;;
21593;SDS011;10959;51.328;7.322;2022-11-20T11:32:29;11.53;;;10.30;;
21593;SDS011;10959;51.328;7.322;2022-11-20T11:34:58;11.53;;;9.87;;
21593;SDS011;10959;51.328;7.322;2022-11-20T11:37:27;11.33;;;9.97;;
21593;SDS011;10959;51.328;7.322;2022-11-20T11:40:01;11.43;;;8.90;;
21593;SDS011;10959;51.328;7.322;2022-11-20T11:42:29;10.53;;;8.70;;
21593;SDS011;10959;51.328;7.322;2022-11-20T11:44:56;11.63;;;9.80;;
21593;SDS011;10959;51.328;7.322;2022-11-20T11:47:31;12.47;;;9.40;;
21593;SDS011;10959;51.328;7.322;2022-11-20T11:50:07;11.00;;;9.30;;
21593;SDS011;10959;51.328;7.322;2022-11-20T11:52:44;12.27;;;10.27;;
21593;SDS011;10959;51.328;7.322;2022-11-20T11:55:16;12.63;;;10.27;;
21593;SDS011;10959;51.328;7.322;2022-11-20T11:57:52;11.97;;;10.43;;
21593;SDS011;10959;51.328;7.322;2022-11-20T12:00:23;12.43;;;10.80;;
21593;SDS011;10959;51.328;7.322;2022-11-20T12:02:54;13.87;;;11.17;;
21593;SDS011;10959;51.328;7.322;2022-11-20T12:05:30;13.53;;;10.97;;
21593;SDS011;10959;51.328;7.322;2022-11-20T12:08:05;13.87;;;11.50;;
21593;SDS011;10959;51.328;7.322;2022-11-20T12:10:40;14.73;;;11.63;;
21593;SDS011;10959;51.328;7.322;2022-11-20T12:13:15;13.93;;;11.67;;
21593;SDS011;10959;51.328;7.322;2022-11-20T12:15:52;13.80;;;11.03;;
21593;SDS011;10959;51.328;7.322;2022-11-20T12:18:21;14.70;;;12.77;;
21593;SDS011;10959;51.328;7.322;2022-11-20T12:20:52;15.57;;;13.60;;
21593;SDS011;10959;51.328;7.322;2022-11-20T12:23:31;13.80;;;12.20;;
21593;SDS011;10959;51.328;7.322;2022-11-20T12:26:08;13.23;;;11.67;;
21593;SDS011;10959;51.328;7.322;2022-11-20T12:28:57;13.17;;;11.40;;
21593;SDS011;10959;51.328;7.322;2022-11-20T12:31:45;15.30;;;12.87;;
21593;SDS011;10959;51.328;7.322;2022-11-20T12:34:24;14.97;;;13.37;;
21593;SDS011;10959;51.328;7.322;2022-11-20T12:37:16;17.43;;;13.27;;
21593;SDS011;10959;51.328;7.322;2022-11-20T12:39:51;15.93;;;13.00;;
21593;SDS011;10959;51.328;7.322;2022-11-20T12:42:33;15.03;;;12.37;;
21593;SDS011;10959;51.328;7.322;2022-11-20T12:45:48;16.13;;;12.93;;
21593;SDS011;10959;51.328;7.322;2022-11-20T12:48:35;16.53;;;12.40;;
21593;SDS011;10959;51.328;7.322;2022-11-20T12:51:24;14.60;;;12.70;;
21593;SDS011;10959;51.328;7.322;2022-11-20T12:54:31;14.43;;;12.70;;
21593;SDS011;10959;51.328;7.322;2022-11-20T12:57:21;14.80;;;12.90;;
21593;SDS011;10959;51.328;7.322;2022-11-20T13:00:01;14.20;;;12.20;;
21593;SDS011;10959;51.328;7.322;2022-11-20T13:02:37;14.87;;;12.63;;
21593;SDS011;10959;51.328;7.322;2022-11-20T13:05:18;14.87;;;12.30;;
21593;SDS011;10959;51.328;7.322;2022-11-20T13:07:47;15.43;;;13.23;;
21593;SDS011;10959;51.328;7.322;2022-11-20T13:10:20;14.63;;;12.40;;
21593;SDS011;10959;51.328;7.322;2022-11-20T13:12:56;15.80;;;12.60;;
21593;SDS011;10959;51.328;7.322;2022-11-20T13:15:36;15.93;;;12.67;;
21593;SDS011;10959;51.328;7.322;2022-11-20T13:18:19;16.53;;;13.50;;
21593;SDS011;10959;51.328;7.322;2022-11-20T13:20:46;15.47;;;13.03;;
21593;SDS011;10959;51.328;7.322;2022-11-20T13:23:22;15.63;;;13.03;;
21593;SDS011;10959;51.328;7.322;2022-11-20T13:25:51;15.20;;;13.40;;
21593;SDS011;10959;51.328;7.322;2022-11-20T13:28:30;17.30;;;12.60;;
21593;SDS011;10959;51.328;7.322;2022-11-20T13:30:57;19.07;;;15.23;;
21593;SDS011;10959;51.328;7.322;2022-11-20T13:33:30;16.70;;;13.57;;
21593;SDS011;10959;51.328;7.322;2022-11-20T13:35:59;16.70;;;14.10;;
21593;SDS011;10959;51.328;7.322;2022-11-20T13:38:28;18.93;;;14.30;;
21593;SDS011;10959;51.328;7.322;2022-11-20T13:41:07;18.10;;;13.90;;
21593;SDS011;10959;51.328;7.322;2022-11-20T13:43:53;17.20;;;14.67;;
21593;SDS011;10959;51.328;7.322;2022-11-20T13:46:34;16.77;;;13.37;;
21593;SDS011;10959;51.328;7.322;2022-11-20T13:49:06;16.80;;;14.40;;
21593;SDS011;10959;51.328;7.322;2022-11-20T13:51:48;17.87;;;14.90;;
21593;SDS011;10959;51.328;7.322;2022-11-20T13:54:20;17.80;;;14.10;;
21593;SDS011;10959;51.328;7.322;2022-11-20T13:57:06;16.37;;;13.93;;
21593;SDS011;10959;51.328;7.322;2022-11-20T13:59:54;18.13;;;15.07;;
21593;SDS011;10959;51.328;7.322;2022-11-20T14:02:32;18.13;;;14.07;;
21593;SDS011;10959;51.328;7.322;2022-11-20T14:05:17;18.87;;;15.20;;
21593;SDS011;10959;51.328;7.322;2022-11-20T14:07:47;21.03;;;15.77;;
21593;SDS011;10959;51.328;7.322;2022-11-20T14:10:20;17.77;;;14.50;;
21593;SDS011;10959;51.328;7.322;2022-11-20T14:12:49;19.30;;;15.90;;
21593;SDS011;10959;51.328;7.322;2022-11-20T14:15:25;24.47;;;18.67;;
21593;SDS011;10959;51.328;7.322;2022-11-20T14:17:53;21.93;;;17.27;;
21593;SDS011;10959;51.328;7.322;2022-11-20T14:20:20;23.27;;;18.13;;
21593;SDS011;10959;51.328;7.322;2022-11-20T14:22:51;24.13;;;18.03;;
21593;SDS011;10959;51.328;7.322;2022-11-20T14:25:19;23.77;;;17.40;;
21593;SDS011;10959;51.328;7.322;2022-11-20T14:27:53;23.03;;;18.33;;
21593;SDS011;10959;51.328;7.322;2022-11-20T14:30:23;23.53;;;18.33;;
21593;SDS011;10959;51.328;7.322;2022-11-20T14:32:53;21.83;;;17.07;;
21593;SDS011;10959;51.328;7.322;2022-11-20T14:35:24;22.20;;;17.03;;
21593;SDS011;10959;51.328;7.322;2022-11-20T14:37:52;26.20;;;18.93;;
21593;SDS011;10959;51.328;7.322;2022-11-20T14:40:25;25.07;;;19.67;;
21593;SDS011;10959;51.328;7.322;2022-11-20T14:42:55;21.23;;;16.70;;
21593;SDS011;10959;51.328;7.322;2022-11-20T14:45:22;26.17;;;18.27;;
21593;SDS011;10959;51.328;7.322;2022-11-20T14:47:51;23.17;;;17.70;;